createdAt,value
2022-12-23T00:03:15.973Z,40.60
2022-12-23T00:06:40.157Z,41.53
2022-12-23T00:10:05.177Z,39.63
2022-12-23T00:13:47.807Z,40.40
2022-12-23T00:17:22.164Z,36.83
2022-12-23T00:20:44.722Z,37.50
2022-12-23T00:24:06.504Z,36.07
2022-12-23T00:27:34.295Z,34.67
2022-12-23T00:31:05.174Z,33.53
2022-12-23T00:34:26.776Z,33.53
2022-12-23T00:37:48.390Z,31.77
2022-12-23T00:41:37.169Z,32.23
2022-12-23T00:45:15.812Z,32.30
2022-12-23T00:48:59.069Z,29.42
2022-12-23T00:52:22.984Z,30.17
2022-12-23T00:55:47.780Z,45.17
2022-12-23T00:59:14.428Z,39.67
2022-12-23T01:02:54.889Z,31.70
2022-12-23T01:06:19.060Z,31.00
2022-12-23T01:09:43.161Z,34.10
2022-12-23T01:13:07.652Z,34.73
2022-12-23T01:16:31.705Z,48.67
2022-12-23T01:19:56.289Z,34.63
2022-12-23T01:23:20.116Z,35.53
2022-12-23T01:26:41.757Z,34.63
2022-12-23T01:30:04.010Z,34.97
2022-12-23T01:33:25.743Z,35.47
2022-12-23T01:36:47.340Z,36.37
2022-12-23T01:40:11.899Z,34.53
2022-12-23T01:43:51.947Z,35.00
2022-12-23T01:47:20.439Z,35.40
2022-12-23T01:50:50.051Z,47.97
2022-12-23T01:54:11.725Z,40.50
2022-12-23T01:57:36.792Z,35.80
2022-12-23T02:01:17.616Z,35.27
2022-12-23T02:04:39.593Z,35.70
2022-12-23T02:08:22.217Z,34.40
2022-12-23T02:12:08.320Z,35.70
2022-12-23T02:16:06.948Z,36.70
2022-12-23T02:20:04.006Z,36.57
2022-12-23T02:23:53.432Z,35.50
2022-12-23T02:27:19.210Z,35.50
2022-12-23T02:30:52.681Z,34.50
2022-12-23T02:34:50.076Z,36.60
2022-12-23T02:38:14.618Z,34.87
2022-12-23T02:42:01.593Z,37.37
2022-12-23T02:45:32.285Z,35.70
2022-12-23T02:49:03.896Z,37.87
2022-12-23T02:52:34.810Z,39.80
2022-12-23T02:55:58.775Z,38.43
2022-12-23T02:59:27.900Z,37.70
2022-12-23T03:02:52.316Z,40.40
2022-12-23T03:06:22.574Z,39.57
2022-12-23T03:09:54.305Z,40.37
2022-12-23T03:13:42.979Z,41.37
2022-12-23T03:17:38.403Z,41.30
2022-12-23T03:21:11.667Z,40.90
2022-12-23T03:25:00.033Z,42.40
2022-12-23T03:28:42.945Z,42.93
2022-12-23T03:32:08.267Z,43.07
2022-12-23T03:35:45.020Z,42.40
2022-12-23T03:39:11.320Z,44.63
2022-12-23T03:42:39.826Z,42.07
2022-12-23T03:46:09.172Z,42.05
2022-12-23T03:49:40.116Z,43.13
2022-12-23T03:53:19.114Z,42.50
2022-12-23T03:56:52.535Z,41.00
2022-12-23T04:00:14.327Z,41.97
2022-12-23T04:03:45.835Z,43.50
2022-12-23T04:07:31.434Z,43.57
2022-12-23T04:10:53.529Z,43.97
2022-12-23T04:14:19.306Z,43.57
2022-12-23T04:17:40.889Z,43.40
2022-12-23T04:21:02.518Z,44.73
2022-12-23T04:24:26.940Z,46.50
2022-12-23T04:27:48.554Z,44.70
2022-12-23T04:31:12.477Z,45.07
2022-12-23T04:34:34.136Z,44.63
2022-12-23T04:37:58.190Z,41.87
2022-12-23T04:41:19.789Z,37.30
2022-12-23T04:44:41.360Z,37.27
2022-12-23T04:48:02.990Z,37.43
2022-12-23T04:51:24.575Z,37.90
2022-12-23T04:54:46.669Z,36.10
2022-12-23T04:58:08.312Z,37.07
2022-12-23T05:01:30.221Z,37.87
2022-12-23T05:04:54.637Z,38.47
2022-12-23T05:08:18.405Z,35.67
2022-12-23T05:11:42.375Z,36.17
2022-12-23T05:15:04.492Z,35.43
2022-12-23T05:18:26.144Z,35.63
2022-12-23T05:21:47.731Z,32.87
2022-12-23T05:25:09.568Z,33.90
2022-12-23T05:28:33.766Z,33.27
2022-12-23T05:31:57.457Z,33.67
2022-12-23T05:35:22.116Z,33.63
2022-12-23T05:38:43.723Z,33.90
2022-12-23T05:42:07.916Z,31.30
2022-12-23T05:45:38.838Z,30.43
2022-12-23T05:49:02.681Z,29.67
2022-12-23T05:52:26.790Z,29.70
2022-12-23T05:55:48.943Z,31.80
2022-12-23T05:59:11.080Z,31.60
2022-12-23T06:02:35.163Z,32.30
2022-12-23T06:05:56.978Z,32.27
2022-12-23T06:09:18.551Z,31.43
2022-12-23T06:12:42.431Z,31.07
2022-12-23T06:16:06.916Z,29.63
2022-12-23T06:19:28.517Z,29.37
2022-12-23T06:22:50.257Z,29.17
2022-12-23T06:26:11.865Z,29.93
2022-12-23T06:29:33.502Z,29.07
2022-12-23T06:32:55.100Z,26.70
2022-12-23T06:36:16.727Z,26.67
2022-12-23T06:39:38.285Z,24.60
2022-12-23T06:43:02.068Z,24.13
2022-12-23T06:46:23.696Z,24.77
2022-12-23T06:49:45.357Z,24.97
2022-12-23T06:53:07.014Z,25.13
2022-12-23T06:56:33.042Z,26.57
2022-12-23T06:59:54.772Z,25.73
2022-12-23T07:03:16.537Z,28.60
2022-12-23T07:06:39.508Z,27.73
2022-12-23T07:10:01.103Z,27.73
2022-12-23T07:13:22.687Z,28.50
2022-12-23T07:16:45.270Z,27.23
2022-12-23T07:20:08.650Z,25.93
2022-12-23T07:23:30.613Z,23.30
2022-12-23T07:26:52.308Z,25.93
2022-12-23T07:30:14.037Z,29.13
2022-12-23T07:33:37.821Z,27.07
2022-12-23T07:36:59.444Z,29.23
2022-12-23T07:40:24.159Z,27.40
2022-12-23T07:43:48.496Z,26.20
2022-12-23T07:47:12.374Z,26.57
2022-12-23T07:50:36.715Z,25.97
2022-12-23T07:53:58.456Z,23.60
2022-12-23T07:57:20.192Z,23.93
2022-12-23T08:00:41.762Z,23.73
2022-12-23T08:04:05.854Z,23.90
2022-12-23T08:07:29.927Z,25.67
2022-12-23T08:10:51.492Z,25.10
2022-12-23T08:14:13.103Z,25.83
2022-12-23T08:17:35.328Z,26.30
2022-12-23T08:21:02.194Z,27.17
2022-12-23T08:24:23.795Z,29.77
2022-12-23T08:27:47.423Z,27.20
2022-12-23T08:31:13.807Z,29.60
2022-12-23T08:34:38.179Z,27.87
2022-12-23T08:37:59.760Z,27.27
2022-12-23T08:41:27.166Z,25.93
